Terminal Aerodrome Forecast
Issued by NWS Jacksonville, FL

Home | Current Version | Previous Version | Text Only | Print | Product List | Glossary On
Versions: 1 2 3 4 5 6 7 8 9 10 11 12 13 14 15 16 17 18 19 20 21 22 23 24 25 26 27 28 29
000
FTUS42 KJAX 261242 AAJ
TAFGNV
TAF AMD
KGNV 261242Z 2613/2712 19003KT 2SM BR BKN007
      TEMPO 2613/2615 1/4SM FG BKN005
     FM261500 22007KT P6SM FEW012 BKN020
     FM261800 22010KT P6SM SCT020 BKN040
     FM270800 21004KT 1SM BR SCT002 BKN070=

USA.gov is the U.S. government's official web portal to all federal, state and local government web resources and services.